createdAt,value
2023-04-12T00:01:11.723Z,8.60
2023-04-12T00:03:40.916Z,8.70
2023-04-12T00:06:10.622Z,11.80
2023-04-12T00:11:07.944Z,11.60
2023-04-12T00:13:36.498Z,10.50
2023-04-12T00:16:07.128Z,9.00
2023-04-12T00:18:36.077Z,10.40
2023-04-12T00:21:05.314Z,10.40
2023-04-12T00:23:34.073Z,8.80
2023-04-12T00:26:02.637Z,10.70
2023-04-12T00:28:31.868Z,10.10
2023-04-12T00:31:00.473Z,10.30
2023-04-12T00:33:29.083Z,12.90
2023-04-12T00:35:59.727Z,9.40
2023-04-12T00:38:28.559Z,11.70
2023-04-12T00:40:58.143Z,9.00
2023-04-12T00:43:27.632Z,10.40
2023-04-12T00:45:58.201Z,11.70
2023-04-12T00:48:29.152Z,10.80
2023-04-12T00:50:58.815Z,12.10
2023-04-12T00:53:28.866Z,8.90
2023-04-12T00:55:59.013Z,12.10
2023-04-12T00:58:27.881Z,9.00
2023-04-12T01:00:57.455Z,10.30
2023-04-12T01:06:30.035Z,9.60
2023-04-12T01:09:16.888Z,9.30
2023-04-12T01:12:02.568Z,9.90
2023-04-12T01:14:58.588Z,11.00
2023-04-12T01:17:31.506Z,10.40
2023-04-12T01:20:19.842Z,11.60
2023-04-12T01:23:19.205Z,9.00
2023-04-12T01:25:59.064Z,10.50
2023-04-12T01:28:35.328Z,9.70
2023-04-12T01:31:06.897Z,10.50
2023-04-12T01:33:38.875Z,10.20
2023-04-12T01:36:16.728Z,9.50
2023-04-12T01:38:47.183Z,11.60
2023-04-12T01:41:16.574Z,9.90
2023-04-12T01:43:48.034Z,10.30
2023-04-12T01:46:23.416Z,10.70
2023-04-12T01:48:54.495Z,14.10
2023-04-12T01:51:48.414Z,10.80
2023-04-12T01:54:29.647Z,9.60
2023-04-12T01:57:02.694Z,11.30
2023-04-12T01:59:38.262Z,11.00
2023-04-12T02:02:08.532Z,10.80
2023-04-12T02:04:38.751Z,11.80
2023-04-12T02:07:07.425Z,11.90
2023-04-12T02:09:39.804Z,9.60
2023-04-12T02:12:09.350Z,10.40
2023-04-12T02:17:08.281Z,10.40
2023-04-12T02:19:37.070Z,11.30
2023-04-12T02:22:07.872Z,10.00
2023-04-12T02:24:36.545Z,11.60
2023-04-12T02:27:05.823Z,11.50
2023-04-12T02:32:03.253Z,11.90
2023-04-12T02:34:34.502Z,11.80
2023-04-12T02:37:22.133Z,9.60
2023-04-12T02:39:50.831Z,9.90
2023-04-12T02:42:19.525Z,9.60
2023-04-12T02:44:50.186Z,13.30
2023-04-12T02:47:18.846Z,9.30
2023-04-12T02:49:49.027Z,9.50
2023-04-12T02:52:18.685Z,9.30
2023-04-12T02:55:00.703Z,9.70
2023-04-12T02:57:29.432Z,11.60
2023-04-12T02:59:58.121Z,11.10
2023-04-12T03:02:34.149Z,10.50
2023-04-12T03:05:05.319Z,9.90
2023-04-12T03:07:40.786Z,10.50
2023-04-12T03:10:14.219Z,10.70
2023-04-12T03:12:46.837Z,12.20
2023-04-12T03:15:20.496Z,12.30
2023-04-12T03:17:50.258Z,10.50
2023-04-12T03:20:24.603Z,12.40
2023-04-12T03:23:10.790Z,10.90
2023-04-12T03:25:44.544Z,10.70
2023-04-12T03:28:31.541Z,12.40
2023-04-12T03:31:00.865Z,10.80
2023-04-12T03:33:38.294Z,13.50
2023-04-12T03:36:07.900Z,11.40
2023-04-12T03:38:36.557Z,12.60
2023-04-12T03:43:38.724Z,10.50
2023-04-12T03:46:15.777Z,11.30
2023-04-12T03:48:45.216Z,12.60
2023-04-12T03:51:13.880Z,10.40
2023-04-12T03:53:45.149Z,10.80
2023-04-12T03:56:16.879Z,9.80
2023-04-12T03:58:48.384Z,10.90
2023-04-12T04:01:18.257Z,10.50
2023-04-12T04:03:48.628Z,11.90
2023-04-12T04:06:23.812Z,11.20
2023-04-12T04:08:57.370Z,11.20
2023-04-12T04:11:28.607Z,13.40
2023-04-12T04:14:02.295Z,10.30
2023-04-12T04:16:38.205Z,12.70
2023-04-12T04:19:08.152Z,11.60
2023-04-12T04:21:36.751Z,11.00
2023-04-12T04:24:07.170Z,11.60
2023-04-12T04:26:38.774Z,11.80
2023-04-12T04:29:30.316Z,11.50
2023-04-12T04:34:27.708Z,13.40
2023-04-12T04:37:02.577Z,14.20
2023-04-12T04:39:31.234Z,11.50
2023-04-12T04:42:00.759Z,12.80
2023-04-12T04:44:36.363Z,13.00
2023-04-12T04:47:07.147Z,12.50
2023-04-12T04:49:38.086Z,12.60
2023-04-12T04:52:14.888Z,10.60
2023-04-12T04:54:45.791Z,11.30
2023-04-12T04:57:15.028Z,13.60
2023-04-12T04:59:43.833Z,13.30
2023-04-12T05:02:17.650Z,11.90
2023-04-12T05:04:46.823Z,10.50
2023-04-12T05:07:27.580Z,11.60
2023-04-12T05:09:57.033Z,14.10
2023-04-12T05:12:31.612Z,12.30
2023-04-12T05:17:34.455Z,14.10
2023-04-12T05:20:06.477Z,12.20
2023-04-12T05:22:35.982Z,14.20
2023-04-12T05:25:06.626Z,12.90
2023-04-12T05:27:39.184Z,12.60
2023-04-12T05:30:26.357Z,13.30
2023-04-12T05:32:55.738Z,13.20
2023-04-12T05:35:26.835Z,10.70
2023-04-12T05:37:59.406Z,13.20
2023-04-12T05:40:28.051Z,12.50
2023-04-12T05:42:57.029Z,12.80
2023-04-12T05:47:56.139Z,11.00
2023-04-12T05:50:27.585Z,12.00
2023-04-12T05:52:56.815Z,13.10
2023-04-12T05:55:32.572Z,13.20
2023-04-12T05:58:02.111Z,12.20
2023-04-12T06:00:31.065Z,14.60
2023-04-12T06:03:06.183Z,14.50
2023-04-12T06:05:35.220Z,12.20
2023-04-12T06:08:05.685Z,13.70
2023-04-12T06:10:34.571Z,14.20
2023-04-12T06:13:03.370Z,15.70
2023-04-12T06:15:33.749Z,14.90
2023-04-12T06:18:02.451Z,15.20
2023-04-12T06:20:31.590Z,17.00
2023-04-12T06:23:00.300Z,13.40
2023-04-12T06:25:29.091Z,16.30
2023-04-12T06:27:59.687Z,13.10
2023-04-12T06:30:28.951Z,13.80
2023-04-12T06:33:04.509Z,12.70
2023-04-12T06:35:34.152Z,13.00
2023-04-12T06:38:03.805Z,12.80
2023-04-12T06:40:32.708Z,13.50
2023-04-12T06:43:01.909Z,14.80
2023-04-12T06:45:31.013Z,15.50
2023-04-12T06:48:00.134Z,14.20
2023-04-12T06:50:29.178Z,15.00
2023-04-12T06:52:58.009Z,15.00
2023-04-12T06:55:29.234Z,14.80
2023-04-12T06:57:57.917Z,15.50
2023-04-12T07:00:27.109Z,14.90
2023-04-12T07:02:56.256Z,14.40
2023-04-12T07:05:25.054Z,15.70
2023-04-12T07:07:53.816Z,19.20
2023-04-12T07:10:22.522Z,15.20
2023-04-12T07:12:52.574Z,16.70
2023-04-12T07:15:27.909Z,14.30
2023-04-12T07:18:26.847Z,13.90
2023-04-12T07:20:59.416Z,15.80
2023-04-12T07:23:31.644Z,16.30
2023-04-12T07:26:02.676Z,16.60
2023-04-12T07:28:31.469Z,13.90
2023-04-12T07:31:00.230Z,16.30
2023-04-12T07:33:32.290Z,21.30
2023-04-12T07:36:01.236Z,16.00
2023-04-12T07:38:29.947Z,16.10
2023-04-12T07:40:58.651Z,13.50
2023-04-12T07:43:28.752Z,14.00
2023-04-12T07:45:57.706Z,14.80
2023-04-12T07:48:27.220Z,13.30
2023-04-12T07:50:59.740Z,15.30
2023-04-12T07:53:29.629Z,13.50
2023-04-12T07:55:58.281Z,16.40
2023-04-12T07:58:26.913Z,14.20
2023-04-12T08:00:59.179Z,14.10
2023-04-12T08:03:31.227Z,14.40
2023-04-12T08:06:02.425Z,14.60
2023-04-12T08:08:31.331Z,14.10
2023-04-12T08:13:48.083Z,13.10
2023-04-12T08:16:16.799Z,15.90
2023-04-12T08:18:45.646Z,13.30
2023-04-12T08:21:14.506Z,13.50
2023-04-12T08:23:45.961Z,11.70
2023-04-12T08:26:14.696Z,13.80
2023-04-12T08:28:43.793Z,15.10
2023-04-12T08:31:13.414Z,14.40
2023-04-12T08:36:10.842Z,13.20
2023-04-12T08:38:45.423Z,9.00
2023-04-12T08:41:15.346Z,11.70
2023-04-12T08:43:46.545Z,11.00
2023-04-12T08:46:16.499Z,11.20
2023-04-12T08:48:48.427Z,12.20
2023-04-12T08:51:20.760Z,13.20
2023-04-12T08:53:49.447Z,12.40
2023-04-12T08:56:30.700Z,13.00
2023-04-12T08:59:01.228Z,13.10
2023-04-12T09:01:30.167Z,11.80
2023-04-12T09:03:59.564Z,12.00
2023-04-12T09:06:28.630Z,11.70
2023-04-12T09:08:58.262Z,11.80
2023-04-12T09:11:28.958Z,12.90
2023-04-12T09:13:59.079Z,12.80
2023-04-12T09:16:42.449Z,14.10
2023-04-12T09:19:11.673Z,14.00
2023-04-12T09:21:56.094Z,11.30
2023-04-12T09:24:25.227Z,11.80
2023-04-12T09:27:07.739Z,13.40
2023-04-12T09:29:38.671Z,12.00
2023-04-12T09:32:09.972Z,12.70
2023-04-12T09:34:39.313Z,11.30
2023-04-12T09:37:18.097Z,14.50
2023-04-12T09:39:46.756Z,14.10
2023-04-12T09:42:32.489Z,12.20
2023-04-12T09:45:21.144Z,12.10
2023-04-12T09:47:50.270Z,14.70
2023-04-12T09:50:30.034Z,14.60
2023-04-12T09:53:04.319Z,12.30
2023-04-12T09:55:46.605Z,13.90
2023-04-12T09:58:19.646Z,13.10
2023-04-12T10:00:49.623Z,13.00
2023-04-12T10:03:19.136Z,13.20
2023-04-12T10:05:47.961Z,12.00
2023-04-12T10:08:18.260Z,11.50
2023-04-12T10:10:48.379Z,13.30
2023-04-12T10:13:18.301Z,11.70
2023-04-12T10:15:51.283Z,11.40
2023-04-12T10:18:27.598Z,10.30
2023-04-12T10:20:56.936Z,10.10
2023-04-12T10:25:57.450Z,10.20
2023-04-12T10:28:32.948Z,10.10
2023-04-12T10:31:33.523Z,12.00
2023-04-12T10:34:03.123Z,11.80
2023-04-12T10:37:13.386Z,12.40
2023-04-12T10:39:47.703Z,10.90
2023-04-12T10:42:30.074Z,11.70
2023-04-12T10:45:39.588Z,10.20
2023-04-12T10:48:10.062Z,11.50
2023-04-12T10:50:40.419Z,12.50
2023-04-12T10:53:18.472Z,11.70
2023-04-12T10:55:47.252Z,12.00
2023-04-12T10:59:00.751Z,14.80
2023-04-12T11:01:36.630Z,11.30
2023-04-12T11:04:22.021Z,12.40
2023-04-12T11:07:13.312Z,11.30
2023-04-12T11:09:57.967Z,13.60
2023-04-12T11:12:30.931Z,12.90
2023-04-12T11:15:04.365Z,12.70
2023-04-12T11:18:01.260Z,10.80
2023-04-12T11:20:30.218Z,11.00
2023-04-12T11:23:02.199Z,12.50
2023-04-12T11:25:32.179Z,11.70
2023-04-12T11:28:01.836Z,15.60
2023-04-12T11:30:31.973Z,11.50
2023-04-12T11:33:00.754Z,11.30
2023-04-12T11:35:30.708Z,10.00
2023-04-12T11:37:59.339Z,10.10
2023-04-12T11:40:28.454Z,11.60
2023-04-12T11:42:58.021Z,12.80
2023-04-12T11:45:27.103Z,11.00
2023-04-12T11:47:58.261Z,10.90
2023-04-12T11:50:31.804Z,11.50
2023-04-12T11:53:13.848Z,9.80
2023-04-12T11:55:50.149Z,12.00
2023-04-12T11:58:29.225Z,9.80
2023-04-12T12:00:58.993Z,13.40
2023-04-12T12:03:28.507Z,12.40
2023-04-12T12:05:58.462Z,11.00
2023-04-12T12:08:27.937Z,9.80
2023-04-12T12:11:07.061Z,13.50
2023-04-12T12:13:55.030Z,12.40
2023-04-12T12:16:29.356Z,12.70
2023-04-12T12:18:58.761Z,11.50
2023-04-12T12:21:28.773Z,11.00
2023-04-12T12:23:58.771Z,9.90
2023-04-12T12:26:28.742Z,10.40
2023-04-12T12:29:00.884Z,11.50
2023-04-12T12:31:31.416Z,11.60
2023-04-12T12:34:07.436Z,10.40
2023-04-12T12:36:39.161Z,11.20
2023-04-12T12:39:13.137Z,12.20
2023-04-12T12:41:41.936Z,11.00
2023-04-12T12:44:12.441Z,9.00
2023-04-12T12:46:53.577Z,12.70
2023-04-12T12:49:24.280Z,11.90
2023-04-12T12:51:53.068Z,12.50
2023-04-12T12:54:38.781Z,10.70
2023-04-12T12:57:09.984Z,11.80
2023-04-12T12:59:38.767Z,10.10
2023-04-12T13:02:08.181Z,10.00
2023-04-12T13:04:40.539Z,10.90
2023-04-12T13:07:09.215Z,12.50
2023-04-12T13:09:38.337Z,10.20
2023-04-12T13:12:06.977Z,10.80
2023-04-12T13:14:36.023Z,10.50
2023-04-12T13:17:08.541Z,13.10
2023-04-12T13:19:37.290Z,11.20
2023-04-12T13:22:07.567Z,13.00
2023-04-12T13:24:36.757Z,11.30
2023-04-12T13:27:05.710Z,14.90
2023-04-12T13:29:44.784Z,11.10
2023-04-12T13:32:14.448Z,11.30
2023-04-12T13:37:12.072Z,10.60
2023-04-12T13:39:42.346Z,11.40
2023-04-12T13:42:11.409Z,11.40
2023-04-12T13:44:40.518Z,11.50
2023-04-12T13:47:12.945Z,12.30
2023-04-12T13:49:42.136Z,9.60
2023-04-12T13:52:10.947Z,12.90
2023-04-12T13:54:41.018Z,11.40
2023-04-12T13:57:10.631Z,11.50
2023-04-12T13:59:39.615Z,12.70
2023-04-12T14:02:08.434Z,11.00
2023-04-12T14:04:51.973Z,11.70
2023-04-12T14:07:21.442Z,11.70
2023-04-12T14:09:50.284Z,13.50
2023-04-12T14:12:19.579Z,11.80
2023-04-12T14:14:48.354Z,13.60
2023-04-12T14:17:17.065Z,12.30
2023-04-12T14:19:46.016Z,13.90
2023-04-12T14:22:21.295Z,12.60
2023-04-12T14:24:50.582Z,14.00
2023-04-12T14:27:19.805Z,11.60
2023-04-12T14:29:48.633Z,12.40
2023-04-12T14:32:24.690Z,11.80
2023-04-12T14:34:54.072Z,13.50
2023-04-12T14:37:23.290Z,11.60
2023-04-12T14:39:54.919Z,15.10
2023-04-12T14:42:27.024Z,14.30
2023-04-12T14:44:55.822Z,14.80
2023-04-12T14:47:25.211Z,14.40
2023-04-12T14:49:54.287Z,15.10
2023-04-12T14:52:23.453Z,15.00
2023-04-12T14:54:52.252Z,15.80
2023-04-12T14:57:20.998Z,16.40
2023-04-12T14:59:51.033Z,14.60
2023-04-12T15:02:22.175Z,15.60
2023-04-12T15:04:52.779Z,16.20
2023-04-12T15:07:24.586Z,16.10
2023-04-12T15:09:58.591Z,16.20
2023-04-12T15:12:33.631Z,17.70
2023-04-12T15:15:06.008Z,18.50
2023-04-12T15:17:35.851Z,15.70
2023-04-12T15:20:09.522Z,18.00
2023-04-12T15:22:41.221Z,18.90
2023-04-12T15:25:12.070Z,17.50
2023-04-12T15:27:40.968Z,17.80
2023-04-12T15:30:11.150Z,17.30
2023-04-12T15:32:42.611Z,20.80
2023-04-12T15:37:44.435Z,15.50
2023-04-12T15:40:15.979Z,17.00
2023-04-12T15:42:44.782Z,17.30
2023-04-12T15:45:13.577Z,16.00
2023-04-12T15:47:42.974Z,18.70
2023-04-12T15:50:13.099Z,18.40
2023-04-12T15:52:43.363Z,17.60
2023-04-12T15:55:12.202Z,17.30
2023-04-12T15:57:40.969Z,19.50
2023-04-12T16:00:21.145Z,17.00
2023-04-12T16:02:56.522Z,17.50
2023-04-12T16:05:26.343Z,16.50
2023-04-12T16:07:55.070Z,15.20
2023-04-12T16:10:24.034Z,17.20
2023-04-12T16:12:54.237Z,16.40
2023-04-12T16:15:23.237Z,19.70
2023-04-12T16:17:54.641Z,15.50
2023-04-12T16:20:24.247Z,15.00
2023-04-12T16:22:54.658Z,14.60
2023-04-12T16:25:28.243Z,15.60
2023-04-12T16:27:57.429Z,16.70
2023-04-12T16:30:26.267Z,15.00
2023-04-12T16:32:55.241Z,15.20
2023-04-12T16:35:24.734Z,14.70
2023-04-12T16:37:57.599Z,14.70
2023-04-12T16:40:27.073Z,15.90
2023-04-12T16:42:55.805Z,14.20
2023-04-12T16:45:24.998Z,18.10
2023-04-12T16:47:55.029Z,16.80
2023-04-12T16:50:25.925Z,16.60
2023-04-12T16:52:54.704Z,15.20
2023-04-12T16:55:24.423Z,13.50
2023-04-12T16:57:56.333Z,13.40
2023-04-12T17:00:29.068Z,14.40
2023-04-12T17:02:58.143Z,14.40
2023-04-12T17:05:27.424Z,14.90
2023-04-12T17:07:58.220Z,17.30
2023-04-12T17:10:27.676Z,14.00
2023-04-12T17:13:00.085Z,17.90
2023-04-12T17:15:30.156Z,17.70
2023-04-12T17:18:09.931Z,13.60
2023-04-12T17:20:39.261Z,15.20
2023-04-12T17:23:10.300Z,14.70
2023-04-12T17:25:39.576Z,15.50
2023-04-12T17:28:09.082Z,14.40
2023-04-12T17:30:37.768Z,13.40
2023-04-12T17:33:09.768Z,13.40
2023-04-12T17:35:38.703Z,12.60
2023-04-12T17:38:07.886Z,14.50
2023-04-12T17:40:41.944Z,14.00
2023-04-12T17:43:10.598Z,10.50
2023-04-12T17:45:40.149Z,13.90
2023-04-12T17:50:45.582Z,12.70
2023-04-12T17:53:14.685Z,12.70
2023-04-12T17:55:44.276Z,15.10
2023-04-12T17:58:13.264Z,12.20
2023-04-12T18:00:44.037Z,13.70
2023-04-12T18:03:15.911Z,13.00
2023-04-12T18:05:46.542Z,11.10
2023-04-12T18:08:17.132Z,11.50
2023-04-12T18:10:47.595Z,12.10
2023-04-12T18:15:46.003Z,11.00
2023-04-12T18:18:14.718Z,9.60
2023-04-12T18:20:43.470Z,12.70
2023-04-12T18:25:41.363Z,9.60
2023-04-12T18:28:11.127Z,9.20
2023-04-12T18:30:40.643Z,9.90
2023-04-12T18:33:09.292Z,8.70
2023-04-12T18:35:40.101Z,9.00
2023-04-12T18:38:12.250Z,9.60
2023-04-12T18:40:41.989Z,8.60
2023-04-12T18:43:13.200Z,8.80
2023-04-12T18:45:42.531Z,8.60
2023-04-12T18:48:11.219Z,8.80
2023-04-12T18:50:41.633Z,10.20
2023-04-12T18:53:11.033Z,7.70
2023-04-12T18:55:39.733Z,7.90
2023-04-12T18:58:10.746Z,9.10
2023-04-12T19:00:41.469Z,8.30
2023-04-12T19:03:10.251Z,7.90
2023-04-12T19:05:39.268Z,9.00
2023-04-12T19:08:10.651Z,8.50
2023-04-12T19:10:39.727Z,10.50
2023-04-12T19:13:08.744Z,8.60
2023-04-12T19:15:38.017Z,9.20
2023-04-12T19:18:06.674Z,11.10
2023-04-12T19:20:35.332Z,9.80
2023-04-12T19:23:05.173Z,9.40
2023-04-12T19:25:35.789Z,8.50
2023-04-12T19:28:05.076Z,10.30
2023-04-12T19:30:33.693Z,13.00
2023-04-12T19:33:02.525Z,11.80
2023-04-12T19:35:33.745Z,11.90
2023-04-12T19:38:04.137Z,11.50
2023-04-12T19:40:33.083Z,10.00
2023-04-12T19:43:02.160Z,12.30
2023-04-12T19:45:30.999Z,14.20
2023-04-12T19:47:59.861Z,16.50
2023-04-12T19:50:31.146Z,13.60
2023-04-12T19:53:00.182Z,14.40
2023-04-12T19:55:29.517Z,14.00
2023-04-12T19:57:59.485Z,14.30
2023-04-12T20:00:28.304Z,15.20
2023-04-12T20:02:57.528Z,16.00
2023-04-12T20:05:27.163Z,16.80
2023-04-12T20:07:56.308Z,17.20
2023-04-12T20:10:25.314Z,15.80
2023-04-12T20:12:54.120Z,17.80
2023-04-12T20:15:22.737Z,20.00
2023-04-12T20:17:52.368Z,19.70
2023-04-12T20:20:21.102Z,20.60
2023-04-12T20:22:52.962Z,21.10
2023-04-12T20:25:21.510Z,22.40
2023-04-12T20:27:52.528Z,21.80
2023-04-12T20:30:21.436Z,20.90
2023-04-12T20:32:54.596Z,20.10
2023-04-12T20:35:23.725Z,21.30
2023-04-12T20:37:53.139Z,20.30
2023-04-12T20:40:23.464Z,23.00
2023-04-12T20:42:52.384Z,23.30
2023-04-12T20:45:22.328Z,22.60
2023-04-12T20:47:51.368Z,21.20
2023-04-12T20:50:22.682Z,23.10
2023-04-12T20:52:54.923Z,19.20
2023-04-12T20:55:25.323Z,19.70
2023-04-12T20:57:55.958Z,21.10
2023-04-12T21:00:24.864Z,21.70
2023-04-12T21:02:54.992Z,21.90
2023-04-12T21:05:23.806Z,19.40
2023-04-12T21:07:52.438Z,20.50
2023-04-12T21:10:20.924Z,18.20
2023-04-12T21:12:50.290Z,19.70
2023-04-12T21:15:22.210Z,20.90
2023-04-12T21:17:52.569Z,22.70
2023-04-12T21:20:22.033Z,20.00
2023-04-12T21:25:23.108Z,21.20
2023-04-12T21:27:51.716Z,22.50
2023-04-12T21:30:21.150Z,21.10
2023-04-12T21:32:52.098Z,21.30
2023-04-12T21:35:23.772Z,21.50
2023-04-12T21:37:52.727Z,19.80
2023-04-12T21:40:22.004Z,20.30
2023-04-12T21:42:50.587Z,20.80
2023-04-12T21:45:19.784Z,19.70
2023-04-12T21:47:49.148Z,23.40
2023-04-12T21:50:17.879Z,21.70
2023-04-12T21:52:47.608Z,20.70
2023-04-12T21:55:16.294Z,21.60
2023-04-12T21:57:44.994Z,22.60
2023-04-12T22:00:14.278Z,21.40
2023-04-12T22:02:43.000Z,22.40
2023-04-12T22:05:11.798Z,22.30
2023-04-12T22:07:41.493Z,22.40
2023-04-12T22:21:26.965Z,20.40
2023-04-12T22:23:56.052Z,21.40
2023-04-12T22:26:25.383Z,21.50
2023-04-12T22:28:54.545Z,22.60
2023-04-12T22:31:23.430Z,24.30
2023-04-12T22:33:55.248Z,25.40
2023-04-12T22:36:28.653Z,24.30
2023-04-12T22:38:58.260Z,25.20
2023-04-12T22:41:28.744Z,23.10
2023-04-12T22:44:01.781Z,24.00
2023-04-12T22:46:33.643Z,23.90
2023-04-12T22:49:02.268Z,25.30
2023-04-12T22:51:31.803Z,24.00
2023-04-12T22:56:30.429Z,27.10
2023-04-12T22:58:59.088Z,23.70
2023-04-12T23:01:29.584Z,25.00
2023-04-12T23:04:00.820Z,24.60
2023-04-12T23:06:32.163Z,21.90
2023-04-12T23:09:01.721Z,23.60
2023-04-12T23:13:59.728Z,24.40
2023-04-12T23:16:30.002Z,23.50
2023-04-12T23:18:59.308Z,26.00
2023-04-12T23:21:28.276Z,25.60
2023-04-12T23:23:57.175Z,24.00
2023-04-12T23:26:26.026Z,23.00
2023-04-12T23:28:54.752Z,22.50
2023-04-12T23:31:23.484Z,24.40
2023-04-12T23:33:52.346Z,21.80
2023-04-12T23:36:22.272Z,23.40
2023-04-12T23:38:55.625Z,21.70
2023-04-12T23:41:24.832Z,22.10
2023-04-12T23:43:57.333Z,24.50
2023-04-12T23:46:26.644Z,26.10
2023-04-12T23:48:55.383Z,22.20
2023-04-12T23:51:24.038Z,24.90
2023-04-12T23:53:53.016Z,24.50
2023-04-12T23:56:21.752Z,21.20
2023-04-12T23:58:50.467Z,21.20
